sensor_id;sensor_type;location;lat;lon;timestamp;pressure;altitude;pressure_sealevel;temperature;humidity
56038;BME280;41907;47.848;9.000;2024-01-30T00:02:12;97206.19;;;-1.03;100.00
56038;BME280;41907;47.848;9.000;2024-01-30T00:04:37;97201.34;;;-1.06;100.00
56038;BME280;41907;47.848;9.000;2024-01-30T00:07:03;97204.56;;;-1.10;100.00
56038;BME280;41907;47.848;9.000;2024-01-30T00:09:28;97197.69;;;-1.12;100.00
56038;BME280;41907;47.848;9.000;2024-01-30T00:11:54;97189.66;;;-1.17;100.00
56038;BME280;41907;47.848;9.000;2024-01-30T00:14:19;97199.13;;;-1.16;100.00
56038;BME280;41907;47.848;9.000;2024-01-30T00:16:44;97198.69;;;-1.19;100.00
56038;BME280;41907;47.848;9.000;2024-01-30T00:19:10;97194.88;;;-1.17;100.00
56038;BME280;41907;47.848;9.000;2024-01-30T00:21:36;97191.03;;;-1.21;100.00
56038;BME280;41907;47.848;9.000;2024-01-30T00:24:01;97196.28;;;-1.21;100.00
56038;BME280;41907;47.848;9.000;2024-01-30T00:26:26;97190.84;;;-1.19;100.00
56038;BME280;41907;47.848;9.000;2024-01-30T00:28:52;97197.69;;;-1.25;100.00
56038;BME280;41907;47.848;9.000;2024-01-30T00:31:17;97191.66;;;-1.25;100.00
56038;BME280;41907;47.848;9.000;2024-01-30T00:33:42;97196.88;;;-1.25;100.00
56038;BME280;41907;47.848;9.000;2024-01-30T00:36:09;97196.06;;;-1.26;100.00
56038;BME280;41907;47.848;9.000;2024-01-30T00:38:35;97197.88;;;-1.26;100.00
56038;BME280;41907;47.848;9.000;2024-01-30T00:41:00;97197.88;;;-1.26;100.00
56038;BME280;41907;47.848;9.000;2024-01-30T00:43:27;97199.06;;;-1.29;100.00
56038;BME280;41907;47.848;9.000;2024-01-30T00:45:53;97206.31;;;-1.31;100.00
56038;BME280;41907;47.848;9.000;2024-01-30T00:48:19;97201.28;;;-1.32;100.00
56038;BME280;41907;47.848;9.000;2024-01-30T00:50:44;97202.47;;;-1.35;100.00
56038;BME280;41907;47.848;9.000;2024-01-30T00:53:10;97205.09;;;-1.35;100.00
56038;BME280;41907;47.848;9.000;2024-01-30T00:55:36;97204.09;;;-1.34;100.00
56038;BME280;41907;47.848;9.000;2024-01-30T00:58:01;97203.47;;;-1.36;100.00
56038;BME280;41907;47.848;9.000;2024-01-30T01:00:26;97196.63;;;-1.37;100.00
56038;BME280;41907;47.848;9.000;2024-01-30T01:02:56;97195.63;;;-1.36;100.00
56038;BME280;41907;47.848;9.000;2024-01-30T01:05:21;97199.25;;;-1.30;100.00
56038;BME280;41907;47.848;9.000;2024-01-30T01:07:47;97202.06;;;-1.32;100.00
56038;BME280;41907;47.848;9.000;2024-01-30T01:10:16;97198.44;;;-1.31;100.00
56038;BME280;41907;47.848;9.000;2024-01-30T01:12:42;97200.88;;;-1.36;100.00
56038;BME280;41907;47.848;9.000;2024-01-30T01:15:08;97201.06;;;-1.31;100.00
56038;BME280;41907;47.848;9.000;2024-01-30T01:17:37;97204.94;;;-1.27;100.00
56038;BME280;41907;47.848;9.000;2024-01-30T01:20:03;97206.94;;;-1.29;100.00
56038;BME280;41907;47.848;9.000;2024-01-30T01:22:28;97208.34;;;-1.26;100.00
56038;BME280;41907;47.848;9.000;2024-01-30T01:24:54;97206.53;;;-1.26;100.00
56038;BME280;41907;47.848;9.000;2024-01-30T01:27:19;97205.53;;;-1.25;100.00
56038;BME280;41907;47.848;9.000;2024-01-30T01:29:45;97209.94;;;-1.32;100.00
56038;BME280;41907;47.848;9.000;2024-01-30T01:32:10;97209.34;;;-1.34;100.00
56038;BME280;41907;47.848;9.000;2024-01-30T01:34:36;97212.59;;;-1.25;100.00
56038;BME280;41907;47.848;9.000;2024-01-30T01:37:01;97201.50;;;-1.27;100.00
56038;BME280;41907;47.848;9.000;2024-01-30T01:39:27;97210.59;;;-1.23;100.00
56038;BME280;41907;47.848;9.000;2024-01-30T01:41:52;97208.72;;;-1.29;100.00
56038;BME280;41907;47.848;9.000;2024-01-30T01:44:18;97204.69;;;-1.32;100.00
56038;BME280;41907;47.848;9.000;2024-01-30T01:46:44;97205.13;;;-1.28;100.00
56038;BME280;41907;47.848;9.000;2024-01-30T01:49:09;97202.31;;;-1.20;100.00
56038;BME280;41907;47.848;9.000;2024-01-30T01:51:36;97204.75;;;-1.19;100.00
56038;BME280;41907;47.848;9.000;2024-01-30T01:54:04;97204.34;;;-1.16;100.00
56038;BME280;41907;47.848;9.000;2024-01-30T01:56:33;97199.69;;;-1.27;100.00
56038;BME280;41907;47.848;9.000;2024-01-30T01:59:04;97205.94;;;-1.28;100.00
56038;BME280;41907;47.848;9.000;2024-01-30T02:01:31;97198.06;;;-1.34;100.00
56038;BME280;41907;47.848;9.000;2024-01-30T02:03:58;97200.31;;;-1.25;100.00
56038;BME280;41907;47.848;9.000;2024-01-30T02:06:24;97204.94;;;-1.20;100.00
56038;BME280;41907;47.848;9.000;2024-01-30T02:08:49;97195.28;;;-1.20;100.00
56038;BME280;41907;47.848;9.000;2024-01-30T02:11:14;97198.50;;;-1.24;100.00
56038;BME280;41907;47.848;9.000;2024-01-30T02:13:41;97194.25;;;-1.25;100.00
56038;BME280;41907;47.848;9.000;2024-01-30T02:16:07;97205.13;;;-1.28;100.00
56038;BME280;41907;47.848;9.000;2024-01-30T02:18:32;97204.94;;;-1.27;100.00
56038;BME280;41907;47.848;9.000;2024-01-30T02:20:58;97199.25;;;-1.30;100.00
56038;BME280;41907;47.848;9.000;2024-01-30T02:23:27;97202.28;;;-1.33;100.00
56038;BME280;41907;47.848;9.000;2024-01-30T02:25:53;97198.44;;;-1.37;100.00
56038;BME280;41907;47.848;9.000;2024-01-30T02:28:19;97197.44;;;-1.36;100.00
56038;BME280;41907;47.848;9.000;2024-01-30T02:30:45;97202.06;;;-1.38;100.00
56038;BME280;41907;47.848;9.000;2024-01-30T02:33:11;97207.09;;;-1.37;100.00
56038;BME280;41907;47.848;9.000;2024-01-30T02:35:36;97199.25;;;-1.37;100.00
56038;BME280;41907;47.848;9.000;2024-01-30T02:38:02;97199.44;;;-1.38;100.00
56038;BME280;41907;47.848;9.000;2024-01-30T02:40:27;97203.66;;;-1.44;100.00
56038;BME280;41907;47.848;9.000;2024-01-30T02:42:52;97204.28;;;-1.42;100.00
56038;BME280;41907;47.848;9.000;2024-01-30T02:45:18;97198.44;;;-1.44;100.00
56038;BME280;41907;47.848;9.000;2024-01-30T02:47:43;97196.00;;;-1.45;100.00
56038;BME280;41907;47.848;9.000;2024-01-30T02:50:09;97193.75;;;-1.48;100.00
56038;BME280;41907;47.848;9.000;2024-01-30T02:52:34;97198.78;;;-1.54;100.00
56038;BME280;41907;47.848;9.000;2024-01-30T02:55:00;97191.31;;;-1.57;100.00
56038;BME280;41907;47.848;9.000;2024-01-30T02:57:25;97191.72;;;-1.60;100.00
56038;BME280;41907;47.848;9.000;2024-01-30T02:59:51;97187.28;;;-1.59;100.00
56038;BME280;41907;47.848;9.000;2024-01-30T03:02:16;97188.28;;;-1.60;100.00
56038;BME280;41907;47.848;9.000;2024-01-30T03:04:42;97188.09;;;-1.59;100.00
56038;BME280;41907;47.848;9.000;2024-01-30T03:07:08;97191.31;;;-1.57;100.00
56038;BME280;41907;47.848;9.000;2024-01-30T03:09:33;97193.13;;;-1.57;100.00
56038;BME280;41907;47.848;9.000;2024-01-30T03:11:58;97190.91;;;-1.60;100.00
56038;BME280;41907;47.848;9.000;2024-01-30T03:14:24;97199.16;;;-1.63;100.00
56038;BME280;41907;47.848;9.000;2024-01-30T03:16:49;97190.47;;;-1.70;100.00
56038;BME280;41907;47.848;9.000;2024-01-30T03:19:15;97191.25;;;-1.70;100.00
56038;BME280;41907;47.848;9.000;2024-01-30T03:21:40;97189.06;;;-1.66;100.00
56038;BME280;41907;47.848;9.000;2024-01-30T03:24:05;97188.63;;;-1.70;100.00
56038;BME280;41907;47.848;9.000;2024-01-30T03:26:31;97184.03;;;-1.68;100.00
56038;BME280;41907;47.848;9.000;2024-01-30T03:28:56;97187.44;;;-1.74;100.00
56038;BME280;41907;47.848;9.000;2024-01-30T03:31:22;97184.19;;;-1.76;100.00
56038;BME280;41907;47.848;9.000;2024-01-30T03:33:47;97184.78;;;-1.80;100.00
56038;BME280;41907;47.848;9.000;2024-01-30T03:36:12;97187.19;;;-1.79;100.00
56038;BME280;41907;47.848;9.000;2024-01-30T03:38:38;97185.81;;;-1.75;100.00
56038;BME280;41907;47.848;9.000;2024-01-30T03:41:03;97176.94;;;-1.80;100.00
56038;BME280;41907;47.848;9.000;2024-01-30T03:43:28;97181.75;;;-1.84;100.00
56038;BME280;41907;47.848;9.000;2024-01-30T03:45:54;97178.09;;;-1.90;100.00
56038;BME280;41907;47.848;9.000;2024-01-30T03:48:20;97174.09;;;-1.85;100.00
56038;BME280;41907;47.848;9.000;2024-01-30T03:50:46;97182.94;;;-1.87;100.00
56038;BME280;41907;47.848;9.000;2024-01-30T03:53:11;97190.16;;;-1.89;100.00
56038;BME280;41907;47.848;9.000;2024-01-30T03:55:36;97187.13;;;-1.92;100.00
56038;BME280;41907;47.848;9.000;2024-01-30T03:58:02;97193.81;;;-1.90;100.00
56038;BME280;41907;47.848;9.000;2024-01-30T04:00:27;97188.31;;;-1.95;100.00
56038;BME280;41907;47.848;9.000;2024-01-30T04:02:53;97188.94;;;-1.93;100.00
56038;BME280;41907;47.848;9.000;2024-01-30T04:05:18;97187.53;;;-1.89;100.00
56038;BME280;41907;47.848;9.000;2024-01-30T04:07:44;97178.31;;;-1.91;100.00
56038;BME280;41907;47.848;9.000;2024-01-30T04:10:09;97187.94;;;-1.92;100.00
56038;BME280;41907;47.848;9.000;2024-01-30T04:12:35;97174.06;;;-1.92;100.00
56038;BME280;41907;47.848;9.000;2024-01-30T04:15:01;97186.34;;;-1.93;100.00
56038;BME280;41907;47.848;9.000;2024-01-30T04:17:26;97185.72;;;-1.95;100.00
56038;BME280;41907;47.848;9.000;2024-01-30T04:19:53;97184.72;;;-1.94;100.00
56038;BME280;41907;47.848;9.000;2024-01-30T04:22:18;97177.25;;;-1.97;100.00
56038;BME280;41907;47.848;9.000;2024-01-30T04:24:44;97175.03;;;-2.00;100.00
56038;BME280;41907;47.848;9.000;2024-01-30T04:27:09;97162.34;;;-2.03;100.00
56038;BME280;41907;47.848;9.000;2024-01-30T04:29:34;97176.41;;;-2.04;100.00
56038;BME280;41907;47.848;9.000;2024-01-30T04:31:59;97180.28;;;-2.00;100.00
56038;BME280;41907;47.848;9.000;2024-01-30T04:34:25;97177.03;;;-2.02;100.00
56038;BME280;41907;47.848;9.000;2024-01-30T04:36:50;97172.19;;;-2.05;100.00
56038;BME280;41907;47.848;9.000;2024-01-30T04:39:16;97172.38;;;-2.06;100.00
56038;BME280;41907;47.848;9.000;2024-01-30T04:41:41;97181.19;;;-2.07;100.00
56038;BME280;41907;47.848;9.000;2024-01-30T04:44:06;97187.88;;;-2.05;100.00
56038;BME280;41907;47.848;9.000;2024-01-30T04:46:32;97180.44;;;-2.08;100.00
56038;BME280;41907;47.848;9.000;2024-01-30T04:48:59;97180.22;;;-2.06;100.00
56038;BME280;41907;47.848;9.000;2024-01-30T04:51:24;97182.00;;;-2.07;100.00
56038;BME280;41907;47.848;9.000;2024-01-30T04:53:50;97189.03;;;-2.07;100.00
56038;BME280;41907;47.848;9.000;2024-01-30T04:56:15;97193.50;;;-2.08;100.00
56038;BME280;41907;47.848;9.000;2024-01-30T04:58:40;97185.22;;;-2.11;100.00
56038;BME280;41907;47.848;9.000;2024-01-30T05:01:05;97186.34;;;-2.27;100.00
56038;BME280;41907;47.848;9.000;2024-01-30T05:03:33;97190.16;;;-2.23;100.00
56038;BME280;41907;47.848;9.000;2024-01-30T05:05:59;97192.56;;;-2.28;100.00
56038;BME280;41907;47.848;9.000;2024-01-30T05:08:25;97192.25;;;-2.12;100.00
56038;BME280;41907;47.848;9.000;2024-01-30T05:10:53;97189.81;;;-2.13;100.00
56038;BME280;41907;47.848;9.000;2024-01-30T05:13:18;97192.44;;;-2.13;100.00
56038;BME280;41907;47.848;9.000;2024-01-30T05:15:43;97184.97;;;-2.16;100.00
56038;BME280;41907;47.848;9.000;2024-01-30T05:18:09;97197.00;;;-2.22;100.00
56038;BME280;41907;47.848;9.000;2024-01-30T05:20:34;97195.03;;;-2.20;100.00
56038;BME280;41907;47.848;9.000;2024-01-30T05:22:59;97200.91;;;-2.11;100.00
56038;BME280;41907;47.848;9.000;2024-01-30T05:25:25;97202.91;;;-2.13;100.00
56038;BME280;41907;47.848;9.000;2024-01-30T05:27:50;97200.88;;;-2.18;100.00
56038;BME280;41907;47.848;9.000;2024-01-30T05:30:15;97200.66;;;-2.16;100.00
56038;BME280;41907;47.848;9.000;2024-01-30T05:32:41;97196.22;;;-2.16;100.00
56038;BME280;41907;47.848;9.000;2024-01-30T05:35:06;97196.81;;;-2.20;100.00
56038;BME280;41907;47.848;9.000;2024-01-30T05:37:33;97204.66;;;-2.20;100.00
56038;BME280;41907;47.848;9.000;2024-01-30T05:39:58;97196.81;;;-2.20;100.00
56038;BME280;41907;47.848;9.000;2024-01-30T05:42:23;97215.31;;;-2.22;100.00
56038;BME280;41907;47.848;9.000;2024-01-30T05:44:49;97210.44;;;-2.25;100.00
56038;BME280;41907;47.848;9.000;2024-01-30T05:47:15;97211.25;;;-2.25;100.00
56038;BME280;41907;47.848;9.000;2024-01-30T05:49:40;97208.78;;;-2.33;100.00
56038;BME280;41907;47.848;9.000;2024-01-30T05:52:06;97210.88;;;-2.49;100.00
56038;BME280;41907;47.848;9.000;2024-01-30T05:54:31;97214.94;;;-2.47;100.00
56038;BME280;41907;47.848;9.000;2024-01-30T05:56:57;97211.72;;;-2.42;100.00
56038;BME280;41907;47.848;9.000;2024-01-30T05:59:22;97213.69;;;-2.51;100.00
56038;BME280;41907;47.848;9.000;2024-01-30T06:01:48;97216.28;;;-2.51;100.00
56038;BME280;41907;47.848;9.000;2024-01-30T06:04:14;97213.22;;;-2.54;100.00
56038;BME280;41907;47.848;9.000;2024-01-30T06:06:40;97211.88;;;-2.50;100.00
56038;BME280;41907;47.848;9.000;2024-01-30T06:09:06;97208.09;;;-2.48;100.00
56038;BME280;41907;47.848;9.000;2024-01-30T06:11:33;97220.19;;;-2.40;100.00
56038;BME280;41907;47.848;9.000;2024-01-30T06:13:58;97206.00;;;-2.31;100.00
56038;BME280;41907;47.848;9.000;2024-01-30T06:16:24;97210.84;;;-2.28;100.00
56038;BME280;41907;47.848;9.000;2024-01-30T06:18:49;97207.78;;;-2.32;100.00
56038;BME280;41907;47.848;9.000;2024-01-30T06:21:14;97206.22;;;-2.26;100.00
56038;BME280;41907;47.848;9.000;2024-01-30T06:23:40;97202.19;;;-2.29;100.00
56038;BME280;41907;47.848;9.000;2024-01-30T06:26:07;97212.84;;;-2.30;100.00
56038;BME280;41907;47.848;9.000;2024-01-30T06:28:32;97210.44;;;-2.25;100.00
56038;BME280;41907;47.848;9.000;2024-01-30T06:30:57;97214.88;;;-2.26;100.00
56038;BME280;41907;47.848;9.000;2024-01-30T06:33:23;97212.25;;;-2.26;100.00
56038;BME280;41907;47.848;9.000;2024-01-30T06:35:48;97216.28;;;-2.23;100.00
56038;BME280;41907;47.848;9.000;2024-01-30T06:38:13;97214.06;;;-2.26;100.00
56038;BME280;41907;47.848;9.000;2024-01-30T06:40:41;97207.09;;;-2.19;100.00
56038;BME280;41907;47.848;9.000;2024-01-30T06:43:06;97218.56;;;-2.13;100.00
56038;BME280;41907;47.848;9.000;2024-01-30T06:45:33;97218.59;;;-2.07;100.00
56038;BME280;41907;47.848;9.000;2024-01-30T06:48:00;97212.81;;;-2.02;100.00
56038;BME280;41907;47.848;9.000;2024-01-30T06:50:25;97222.69;;;-1.98;100.00
56038;BME280;41907;47.848;9.000;2024-01-30T06:52:51;97226.53;;;-1.94;100.00
56038;BME280;41907;47.848;9.000;2024-01-30T06:55:16;97225.75;;;-1.94;100.00
56038;BME280;41907;47.848;9.000;2024-01-30T06:57:41;97226.16;;;-1.91;100.00
56038;BME280;41907;47.848;9.000;2024-01-30T07:00:07;97228.16;;;-1.93;100.00
56038;BME280;41907;47.848;9.000;2024-01-30T07:02:33;97230.97;;;-1.94;100.00
56038;BME280;41907;47.848;9.000;2024-01-30T07:04:58;97228.19;;;-1.86;100.00
56038;BME280;41907;47.848;9.000;2024-01-30T07:07:23;97234.88;;;-1.77;100.00
56038;BME280;41907;47.848;9.000;2024-01-30T07:09:49;97228.38;;;-1.53;100.00
56038;BME280;41907;47.848;9.000;2024-01-30T07:12:17;97226.34;;;-0.97;100.00
56038;BME280;41907;47.848;9.000;2024-01-30T07:14:43;97232.66;;;-0.52;100.00
56038;BME280;41907;47.848;9.000;2024-01-30T07:17:08;97220.56;;;-0.20;100.00
56038;BME280;41907;47.848;9.000;2024-01-30T07:19:33;97234.00;;;0.30;100.00
56038;BME280;41907;47.848;9.000;2024-01-30T07:21:59;97229.03;;;0.73;100.00
56038;BME280;41907;47.848;9.000;2024-01-30T07:24:25;97230.13;;;0.97;100.00
56038;BME280;41907;47.848;9.000;2024-01-30T07:26:50;97231.94;;;1.03;100.00
56038;BME280;41907;47.848;9.000;2024-01-30T07:29:16;97235.09;;;1.11;100.00
56038;BME280;41907;47.848;9.000;2024-01-30T07:31:43;97238.16;;;1.40;100.00
56038;BME280;41907;47.848;9.000;2024-01-30T07:34:09;97239.75;;;1.72;100.00
56038;BME280;41907;47.848;9.000;2024-01-30T07:36:34;97234.97;;;1.63;100.00
56038;BME280;41907;47.848;9.000;2024-01-30T07:38:59;97245.34;;;1.51;100.00
56038;BME280;41907;47.848;9.000;2024-01-30T07:41:25;97241.88;;;1.57;100.00
56038;BME280;41907;47.848;9.000;2024-01-30T07:43:50;97251.00;;;1.23;100.00
56038;BME280;41907;47.848;9.000;2024-01-30T07:46:16;97247.94;;;1.26;100.00
56038;BME280;41907;47.848;9.000;2024-01-30T07:48:41;97250.53;;;1.33;100.00
56038;BME280;41907;47.848;9.000;2024-01-30T07:51:06;97247.88;;;1.39;100.00
56038;BME280;41907;47.848;9.000;2024-01-30T07:53:32;97253.06;;;1.77;100.00
56038;BME280;41907;47.848;9.000;2024-01-30T07:55:57;97251.47;;;2.19;100.00
56038;BME280;41907;47.848;9.000;2024-01-30T07:58:22;97257.06;;;2.30;100.00
56038;BME280;41907;47.848;9.000;2024-01-30T08:00:49;97247.72;;;2.09;100.00
56038;BME280;41907;47.848;9.000;2024-01-30T08:03:14;97258.19;;;1.97;100.00
56038;BME280;41907;47.848;9.000;2024-01-30T08:05:41;97260.66;;;2.10;100.00
56038;BME280;41907;47.848;9.000;2024-01-30T08:08:07;97267.88;;;1.97;100.00
56038;BME280;41907;47.848;9.000;2024-01-30T08:10:32;97256.94;;;1.75;100.00
56038;BME280;41907;47.848;9.000;2024-01-30T08:12:58;97262.25;;;1.37;100.00
56038;BME280;41907;47.848;9.000;2024-01-30T08:15:23;97269.13;;;1.38;100.00
56038;BME280;41907;47.848;9.000;2024-01-30T08:17:48;97258.88;;;1.23;100.00
56038;BME280;41907;47.848;9.000;2024-01-30T08:20:14;97262.50;;;1.29;100.00
56038;BME280;41907;47.848;9.000;2024-01-30T08:22:40;97264.81;;;1.43;100.00
56038;BME280;41907;47.848;9.000;2024-01-30T08:25:06;97259.88;;;1.60;100.00
56038;BME280;41907;47.848;9.000;2024-01-30T08:27:31;97270.53;;;1.97;100.00
56038;BME280;41907;47.848;9.000;2024-01-30T08:29:57;97262.41;;;2.41;100.00
56038;BME280;41907;47.848;9.000;2024-01-30T08:32:22;97273.69;;;2.67;100.00
56038;BME280;41907;47.848;9.000;2024-01-30T08:34:49;97259.41;;;2.92;100.00
56038;BME280;41907;47.848;9.000;2024-01-30T08:37:14;97260.16;;;3.71;99.15
56038;BME280;41907;47.848;9.000;2024-01-30T08:39:41;97266.28;;;4.18;94.48
56038;BME280;41907;47.848;9.000;2024-01-30T08:42:07;97257.38;;;4.94;90.74
56038;BME280;41907;47.848;9.000;2024-01-30T08:44:33;97263.09;;;5.59;86.55
56038;BME280;41907;47.848;9.000;2024-01-30T08:46:58;97259.19;;;5.62;82.98
56038;BME280;41907;47.848;9.000;2024-01-30T08:49:23;97268.81;;;6.13;82.45
56038;BME280;41907;47.848;9.000;2024-01-30T08:51:49;97264.38;;;6.74;78.75
56038;BME280;41907;47.848;9.000;2024-01-30T08:54:15;97260.81;;;7.07;75.31
56038;BME280;41907;47.848;9.000;2024-01-30T08:56:41;97263.66;;;6.62;75.69
56038;BME280;41907;47.848;9.000;2024-01-30T08:59:06;97263.19;;;7.08;75.21
56038;BME280;41907;47.848;9.000;2024-01-30T09:01:31;97262.03;;;7.21;74.10
56038;BME280;41907;47.848;9.000;2024-01-30T09:03:57;97266.72;;;6.92;73.02
56038;BME280;41907;47.848;9.000;2024-01-30T09:06:22;97269.81;;;7.06;75.09
56038;BME280;41907;47.848;9.000;2024-01-30T09:08:49;97276.38;;;7.47;73.70
56038;BME280;41907;47.848;9.000;2024-01-30T09:11:15;97266.72;;;7.63;71.52
56038;BME280;41907;47.848;9.000;2024-01-30T09:13:41;97273.94;;;7.45;72.66
56038;BME280;41907;47.848;9.000;2024-01-30T09:16:07;97274.13;;;7.61;73.80
56038;BME280;41907;47.848;9.000;2024-01-30T09:18:32;97275.03;;;7.71;71.38
56038;BME280;41907;47.848;9.000;2024-01-30T09:20:58;97274.75;;;8.00;69.49
56038;BME280;41907;47.848;9.000;2024-01-30T09:23:23;97275.75;;;7.94;70.07
56038;BME280;41907;47.848;9.000;2024-01-30T09:25:49;97269.66;;;7.66;70.22
56038;BME280;41907;47.848;9.000;2024-01-30T09:28:17;97267.41;;;7.80;71.50
56038;BME280;41907;47.848;9.000;2024-01-30T09:30:42;97266.69;;;7.90;69.70
56038;BME280;41907;47.848;9.000;2024-01-30T09:33:08;97275.25;;;7.16;72.29
56038;BME280;41907;47.848;9.000;2024-01-30T09:35:33;97266.88;;;7.51;72.33
56038;BME280;41907;47.848;9.000;2024-01-30T09:37:58;97281.88;;;7.19;73.54
56038;BME280;41907;47.848;9.000;2024-01-30T09:40:24;97285.00;;;6.89;76.40
56038;BME280;41907;47.848;9.000;2024-01-30T09:42:50;97277.41;;;8.00;72.46
56038;BME280;41907;47.848;9.000;2024-01-30T09:45:18;97279.97;;;8.53;69.25
56038;BME280;41907;47.848;9.000;2024-01-30T09:47:44;97278.63;;;8.51;70.99
56038;BME280;41907;47.848;9.000;2024-01-30T09:50:13;97282.56;;;9.53;65.36
56038;BME280;41907;47.848;9.000;2024-01-30T09:52:39;97286.31;;;9.67;64.25
56038;BME280;41907;47.848;9.000;2024-01-30T09:55:06;97285.59;;;10.32;61.34
56038;BME280;41907;47.848;9.000;2024-01-30T09:57:31;97284.75;;;9.91;62.68
56038;BME280;41907;47.848;9.000;2024-01-30T09:59:57;97284.09;;;9.33;67.30
56038;BME280;41907;47.848;9.000;2024-01-30T10:02:23;97285.00;;;9.85;65.50
56038;BME280;41907;47.848;9.000;2024-01-30T10:04:49;97279.91;;;10.90;61.10
56038;BME280;41907;47.848;9.000;2024-01-30T10:07:15;97279.25;;;11.72;57.90
56038;BME280;41907;47.848;9.000;2024-01-30T10:09:43;97277.16;;;12.13;56.74
56038;BME280;41907;47.848;9.000;2024-01-30T10:12:09;97277.88;;;11.85;56.23
56038;BME280;41907;47.848;9.000;2024-01-30T10:14:38;97279.19;;;10.33;60.08
56038;BME280;41907;47.848;9.000;2024-01-30T10:17:04;97283.19;;;9.08;66.30
56038;BME280;41907;47.848;9.000;2024-01-30T10:19:31;97279.84;;;8.80;70.46
56038;BME280;41907;47.848;9.000;2024-01-30T10:21:56;97282.31;;;8.87;71.50
56038;BME280;41907;47.848;9.000;2024-01-30T10:24:25;97280.31;;;9.19;69.15
56038;BME280;41907;47.848;9.000;2024-01-30T10:26:50;97274.06;;;9.66;68.89
56038;BME280;41907;47.848;9.000;2024-01-30T10:29:16;97279.19;;;10.23;64.57
56038;BME280;41907;47.848;9.000;2024-01-30T10:31:42;97281.03;;;10.48;63.60
56038;BME280;41907;47.848;9.000;2024-01-30T10:34:07;97275.47;;;10.34;65.99
56038;BME280;41907;47.848;9.000;2024-01-30T10:36:42;97279.22;;;10.28;65.86
56038;BME280;41907;47.848;9.000;2024-01-30T10:39:11;97278.41;;;10.18;65.68
56038;BME280;41907;47.848;9.000;2024-01-30T10:41:43;97271.91;;;9.53;67.29
56038;BME280;41907;47.848;9.000;2024-01-30T10:44:10;97276.09;;;8.71;71.59
56038;BME280;41907;47.848;9.000;2024-01-30T10:46:37;97275.66;;;8.15;75.49
56038;BME280;41907;47.848;9.000;2024-01-30T10:49:03;97270.56;;;7.77;78.32
56038;BME280;41907;47.848;9.000;2024-01-30T10:51:31;97271.84;;;7.74;80.16
56038;BME280;41907;47.848;9.000;2024-01-30T10:53:57;97274.00;;;7.77;82.37
56038;BME280;41907;47.848;9.000;2024-01-30T10:56:23;97274.13;;;8.19;80.06
56038;BME280;41907;47.848;9.000;2024-01-30T10:58:51;97272.06;;;8.64;76.58
56038;BME280;41907;47.848;9.000;2024-01-30T11:01:18;97270.31;;;8.42;78.63
56038;BME280;41907;47.848;9.000;2024-01-30T11:03:45;97257.56;;;8.12;78.65
56038;BME280;41907;47.848;9.000;2024-01-30T11:06:11;97254.41;;;7.83;81.06
56038;BME280;41907;47.848;9.000;2024-01-30T11:08:39;97261.09;;;7.59;83.54
56038;BME280;41907;47.848;9.000;2024-01-30T11:11:09;97252.56;;;7.08;86.82
56038;BME280;41907;47.848;9.000;2024-01-30T11:13:35;97254.81;;;6.95;87.98
56038;BME280;41907;47.848;9.000;2024-01-30T11:16:04;97255.97;;;6.82;89.76
56038;BME280;41907;47.848;9.000;2024-01-30T11:18:31;97252.22;;;6.78;91.26
56038;BME280;41907;47.848;9.000;2024-01-30T11:21:01;97250.25;;;6.90;91.30
56038;BME280;41907;47.848;9.000;2024-01-30T11:23:30;97249.31;;;6.80;91.16
56038;BME280;41907;47.848;9.000;2024-01-30T11:25:58;97245.13;;;6.84;91.87
56038;BME280;41907;47.848;9.000;2024-01-30T11:28:23;97242.38;;;6.95;93.03
56038;BME280;41907;47.848;9.000;2024-01-30T11:30:49;97237.09;;;7.22;92.43
56038;BME280;41907;47.848;9.000;2024-01-30T11:33:30;97236.19;;;7.38;91.52
56038;BME280;41907;47.848;9.000;2024-01-30T11:35:57;97234.47;;;8.13;86.81
56038;BME280;41907;47.848;9.000;2024-01-30T11:38:26;97224.75;;;8.71;84.17
56038;BME280;41907;47.848;9.000;2024-01-30T11:40:52;97220.59;;;8.95;79.54
56038;BME280;41907;47.848;9.000;2024-01-30T11:43:18;97222.16;;;8.86;81.38
56038;BME280;41907;47.848;9.000;2024-01-30T11:45:44;97212.28;;;8.76;82.32
56038;BME280;41907;47.848;9.000;2024-01-30T11:48:12;97206.25;;;8.96;80.75
56038;BME280;41907;47.848;9.000;2024-01-30T11:50:38;97217.19;;;8.47;82.73
56038;BME280;41907;47.848;9.000;2024-01-30T11:53:04;97213.22;;;8.55;83.16
56038;BME280;41907;47.848;9.000;2024-01-30T11:55:30;97216.88;;;8.44;83.72
56038;BME280;41907;47.848;9.000;2024-01-30T11:57:57;97218.72;;;8.38;85.30
56038;BME280;41907;47.848;9.000;2024-01-30T12:00:22;97220.75;;;8.26;85.31
56038;BME280;41907;47.848;9.000;2024-01-30T12:02:52;97212.44;;;8.17;86.29
56038;BME280;41907;47.848;9.000;2024-01-30T12:05:21;97216.56;;;7.98;86.58
56038;BME280;41907;47.848;9.000;2024-01-30T12:07:46;97213.91;;;7.98;86.08
56038;BME280;41907;47.848;9.000;2024-01-30T12:10:13;97210.75;;;7.69;87.68
56038;BME280;41907;47.848;9.000;2024-01-30T12:12:46;97211.94;;;7.57;91.44
56038;BME280;41907;47.848;9.000;2024-01-30T12:15:13;97213.72;;;7.78;89.29
56038;BME280;41907;47.848;9.000;2024-01-30T12:17:39;97216.72;;;8.18;86.20
56038;BME280;41907;47.848;9.000;2024-01-30T12:20:14;97215.13;;;7.85;88.59
56038;BME280;41907;47.848;9.000;2024-01-30T12:22:43;97206.50;;;8.37;87.09
56038;BME280;41907;47.848;9.000;2024-01-30T12:25:17;97201.34;;;7.89;88.04
56038;BME280;41907;47.848;9.000;2024-01-30T12:27:46;97198.16;;;7.55;90.90
56038;BME280;41907;47.848;9.000;2024-01-30T12:30:15;97201.00;;;7.80;91.69
56038;BME280;41907;47.848;9.000;2024-01-30T12:32:42;97196.06;;;7.94;90.09
56038;BME280;41907;47.848;9.000;2024-01-30T12:35:12;97191.66;;;8.09;90.48
56038;BME280;41907;47.848;9.000;2024-01-30T12:37:41;97190.34;;;8.54;87.52
56038;BME280;41907;47.848;9.000;2024-01-30T12:40:08;97192.78;;;8.61;85.02
56038;BME280;41907;47.848;9.000;2024-01-30T12:42:34;97190.16;;;7.87;88.75
56038;BME280;41907;47.848;9.000;2024-01-30T12:45:01;97183.28;;;8.28;89.24
56038;BME280;41907;47.848;9.000;2024-01-30T12:47:27;97191.91;;;8.50;87.75
56038;BME280;41907;47.848;9.000;2024-01-30T12:49:52;97187.69;;;8.54;86.72
56038;BME280;41907;47.848;9.000;2024-01-30T12:52:21;97191.13;;;8.49;87.24